Data for 01/08/2010

Time Sea-Level Adjusted Pressure Absolute Pressure Temperature Relative Humidity Dew Point   
(mb) (inHg) (mb) (inHg) (C) (F) (%) (C) (F)
00:05 1025 30.27 855 25.25 -17.5 0.6 81 -20 -4
00:10 1025 30.27 854 25.22 -18 -0.4 76 -21.2 -6.2
00:15 1025 30.27 854 25.22 -18.6 -1.4 81 -21 -5.8
00:20 1025 30.27 854 25.22 -18.5 -1.4 82 -20.8 -5.5
00:25 1025 30.27 854 25.22 -18.8 -1.8 80 -21.5 -6.6
00:30 1025 30.27 854 25.22 -19.2 -2.5 80 -21.8 -7.3
00:35 1025 30.27 854 25.22 -19.4 -3 82 -21.7 -7.1
00:40 1025 30.27 854 25.22 -19.4 -3 85 -21.3 -6.4
00:45 1025 30.27 855 25.25 -19.3 -2.7 84 -21.3 -6.4
00:50 1025 30.27 855 25.25 -18.9 -2 83 -21.1 -6.1
00:55 1026 30.3 855 25.25 -18.6 -1.4 79 -21.4 -6.5
01:00 1026 30.3 855 25.25 -18.8 -1.8 78 -21.7 -7
01:05 1026 30.3 855 25.25 -19 -2.2 78 -21.9 -7.5
01:10 1026 30.3 855 25.25 -19.2 -2.5 77 -22.3 -8.1
01:15 1026 30.3 855 25.25 -19.6 -3.3 80 -22.3 -8.2
01:20 1026 30.3 855 25.25 -20 -4 82 -22.3 -8.1
01:25 1026 30.3 855 25.25 -20.1 -4.2 84 -22.1 -7.8
01:30 1026 30.3 855 25.25 -19.9 -3.8 86 -21.7 -7
01:35 1026 30.3 855 25.25 -19.4 -2.9 86 -21.2 -6.1
01:40 1026 30.3 855 25.25 -19.2 -2.6 85 -21.2 -6.1
01:45 1026 30.3 855 25.25 -19.4 -2.9 83 -21.6 -6.8
01:50 1026 30.3 855 25.25 -19.8 -3.6 84 -21.9 -7.4
01:55 1026 30.3 855 25.25 -20 -4 84 -22.1 -7.7
02:00 1025 30.27 855 25.25 -20.3 -4.6 86 -22.2 -7.9
02:05 1025 30.27 855 25.25 -20.5 -4.8 85 -22.4 -8.3
02:10 1025 30.27 854 25.22 -20.4 -4.7 84 -22.4 -8.3
02:15 1025 30.27 854 25.22 -20.3 -4.6 84 -22.3 -8.2
02:20 1025 30.27 854 25.22 -20 -3.9 84 -22 -7.6
02:25 1025 30.27 854 25.22 -19.1 -2.4 80 -21.7 -7.1
02:30 1025 30.27 854 25.22 -19.1 -2.4 80 -21.8 -7.2
02:35 1025 30.27 854 25.22 -19.1 -2.4 79 -21.8 -7.3
02:40 1025 30.27 854 25.22 -19.3 -2.7 83 -21.5 -6.6
02:45 1025 30.27 854 25.22 -18.7 -1.7 83 -20.9 -5.7
02:50 1025 30.27 854 25.22 -18.2 -0.8 83 -20.5 -4.8
02:55 1025 30.27 854 25.22 -17.8 -0.1 83 -20.1 -4.2
03:00 1025 30.27 854 25.22 -17.4 0.6 82 -19.7 -3.5
03:05 1025 30.27 854 25.22 -17 1.5 80 -19.7 -3.4
03:10 1025 30.27 854 25.22 -16.8 1.8 76 -20.1 -4.2
03:15 1025 30.27 854 25.22 -17.3 0.8 74 -21 -5.8
03:20 1025 30.27 854 25.22 -18.1 -0.7 75 -21.5 -6.8
03:25 1025 30.27 854 25.22 -18.8 -1.8 77 -21.8 -7.2
03:30 1025 30.27 854 25.22 -19.1 -2.4 85 -21 -5.8
03:35 1025 30.27 854 25.22 -18.9 -1.9 86 -20.6 -5.1
03:40 1025 30.27 854 25.22 -18.8 -1.8 79 -21.6 -6.9
03:45 1025 30.27 854 25.22 -19.3 -2.8 82 -21.6 -7
03:50 1025 30.27 854 25.22 -19.2 -2.6 84 -21.3 -6.4
03:55 1025 30.27 854 25.22 -18.9 -1.9 83 -21 -5.9
04:00 1025 30.27 854 25.22 -18.3 -1 82 -20.7 -5.2
04:05 1025 30.27 854 25.22 -17.7 0.2 80 -20.4 -4.7
04:10 1025 30.27 854 25.22 -17.4 0.7 79 -20.2 -4.3
04:15 1025 30.27 854 25.22 -17.2 1 79 -20.1 -4.2
04:20 1024 30.24 854 25.22 -17.6 0.3 80 -20.2 -4.4
04:25 1024 30.24 854 25.22 -17.6 0.4 79 -20.3 -4.5
04:30 1024 30.24 854 25.22 -17.8 -0.1 80 -20.5 -4.8
04:35 1024 30.24 854 25.22 -18.5 -1.4 81 -21 -5.8
04:40 1024 30.24 854 25.22 -19 -2.2 83 -21.2 -6.1
04:45 1024 30.24 854 25.22 -18.7 -1.7 83 -20.9 -5.7
04:50 1024 30.24 854 25.22 -18.3 -1 81 -20.8 -5.5
04:55 1025 30.27 854 25.22 -18 -0.5 80 -20.7 -5.2
05:00 1025 30.27 854 25.22 -17.8 -0 79 -20.7 -5.2
05:05 1025 30.27 854 25.22 -17.9 -0.2 79 -20.7 -5.2
05:10 1025 30.27 854 25.22 -18.2 -0.8 79 -21 -5.8
05:15 1025 30.27 854 25.22 -19.1 -2.3 84 -21.2 -6.1
05:20 1025 30.27 854 25.22 -18.5 -1.3 83 -20.7 -5.2
05:25 1025 30.27 854 25.22 -18.4 -1.1 86 -20.2 -4.4
05:30 1024 30.24 854 25.22 -18.3 -0.9 81 -20.7 -5.3
05:35 1024 30.24 854 25.22 -18.9 -2.1 83 -21.1 -6
05:40 1024 30.24 853 25.19 -19 -2.2 87 -20.7 -5.2
05:45 1024 30.24 854 25.22 -18.4 -1.1 85 -20.4 -4.7
05:50 1025 30.27 854 25.22 -18.2 -0.8 87 -19.8 -3.7
05:55 1025 30.27 854 25.22 -17.9 -0.2 86 -19.7 -3.4
06:00 1025 30.27 854 25.22 -17.8 -0.1 83 -20.1 -4.1
06:05 1025 30.27 854 25.22 -18.2 -0.8 84 -20.3 -4.5
06:10 1025 30.27 854 25.22 -18.3 -0.9 84 -20.3 -4.6
06:15 1025 30.27 854 25.22 -18.2 -0.8 85 -20.1 -4.2
06:20 1025 30.27 854 25.22 -18 -0.4 82 -20.3 -4.6
06:25 1025 30.27 854 25.22 -18.1 -0.6 85 -20 -4.1
06:30 1025 30.27 854 25.22 -18.1 -0.7 85 -20.1 -4.2
06:35 1025 30.27 854 25.22 -18.2 -0.7 85 -20.1 -4.2
06:40 1025 30.27 854 25.22 -17.8 0 87 -19.5 -3.1
06:45 1025 30.27 854 25.22 -17.3 0.9 84 -19.4 -2.9
06:50 1025 30.27 854 25.22 -17 1.5 81 -19.4 -3
06:55 1025 30.27 854 25.22 -17.6 0.2 82 -20 -4
07:00 1025 30.27 854 25.22 -18.1 -0.5 84 -20.2 -4.3
07:05 1025 30.27 854 25.22 -17.9 -0.2 85 -19.9 -3.8
07:10 1025 30.27 854 25.22 -17.7 0.2 83 -19.8 -3.7
07:15 1025 30.27 854 25.22 -17.7 0.2 83 -19.9 -3.9
07:20 1025 30.27 854 25.22 -17.9 -0.2 84 -19.9 -3.8
07:25 1025 30.27 854 25.22 -17.6 0.3 85 -19.6 -3.3
07:30 1025 30.27 854 25.22 -17.2 1 84 -19.4 -2.9
07:35 1025 30.27 854 25.22 -17.1 1.3 85 -19.1 -2.3
07:40 1024 30.24 854 25.22 -16.5 2.4 84 -18.6 -1.5
07:45 1024 30.24 854 25.22 -15.9 3.3 81 -18.5 -1.3
07:50 1024 30.24 853 25.19 -16 3.3 81 -18.6 -1.5
07:55 1024 30.24 853 25.19 -15.8 3.5 81 -18.4 -1.1
08:00 1024 30.24 853 25.19 -15.7 3.7 81 -18.2 -0.8
08:05 1024 30.24 853 25.19 -15.4 4.3 81 -18 -0.4
08:10 1024 30.24 853 25.19 -15 5 80 -17.8 0
08:15 1024 30.24 853 25.19 -14.6 5.7 78 -17.7 0.2
08:20 1024 30.24 853 25.19 -14.5 6 78 -17.5 0.5
08:25 1024 30.24 853 25.19 -14.5 5.9 77 -17.7 0.1
08:30 1024 30.24 854 25.22 -14.8 5.3 75 -18.4 -1.1
08:35 1024 30.24 854 25.22 -15.5 4.1 75 -18.9 -2.1
08:40 1024 30.24 854 25.22 -16.1 3.1 78 -19.1 -2.4
08:45 1025 30.27 854 25.22 -15.9 3.4 76 -19.2 -2.5
08:50 1025 30.27 854 25.22 -15.9 3.4 75 -19.5 -3
08:55 1025 30.27 854 25.22 -16.1 3.1 75 -19.5 -3
09:00 1025 30.27 854 25.22 -15.8 3.5 74 -19.5 -3
09:05 1025 30.27 854 25.22 -15.8 3.6 75 -19.3 -2.7
09:10 1025 30.27 854 25.22 -15.8 3.6 76 -19.2 -2.5
09:15 1025 30.27 854 25.22 -15.7 3.7 76 -19 -2.2
09:20 1025 30.27 854 25.22 -15.8 3.5 77 -19 -2.2
09:25 1025 30.27 854 25.22 -15.2 4.7 74 -18.9 -2
09:30 1025 30.27 854 25.22 -15 5 75 -18.5 -1.3
09:35 1025 30.27 854 25.22 -14.7 5.5 74 -18.5 -1.2
09:40 1025 30.27 854 25.22 -14.3 6.2 74 -18.1 -0.5
09:45 1024 30.24 854 25.22 -14.8 5.4 75 -18.2 -0.8
09:50 1024 30.24 853 25.19 -15.2 4.7 75 -18.7 -1.7
09:55 1024 30.24 853 25.19 -15.5 4.2 76 -18.8 -1.8
10:00 1024 30.24 853 25.19 -15.2 4.7 76 -18.5 -1.3
10:05 1024 30.24 853 25.19 -14.3 6.2 73 -18.1 -0.6
10:10 1024 30.24 853 25.19 -13.9 7.1 72 -17.8 -0
10:15 1024 30.24 853 25.19 -13.8 7.1 73 -17.7 0.2
10:20 1024 30.24 854 25.22 -13.2 8.2 70 -17.6 0.4
10:25 1024 30.24 854 25.22 -12.5 9.5 67 -17.5 0.6
10:30 1025 30.27 854 25.22 -11.2 11.8 63 -17 1.4
10:35 1025 30.27 854 25.22 -10.8 12.6 61 -16.9 1.6
10:40 1025 30.27 854 25.22 -10.8 12.5 61 -17 1.4
10:45 1025 30.27 854 25.22 -11.1 12 61 -17.2 1
10:50 1025 30.27 854 25.22 -11.3 11.6 62 -17.3 0.9
10:55 1025 30.27 854 25.22 -11 12.3 58 -17.6 0.3
11:00 1025 30.27 854 25.22 -11 12.2 60 -17.3 0.8
11:05 1025 30.27 854 25.22 -10.6 12.9 59 -17.2 1
11:10 1025 30.27 854 25.22 -11.4 11.5 61 -17.5 0.5
11:15 1025 30.27 854 25.22 -11.6 11.1 62 -17.5 0.5
11:20 1025 30.27 854 25.22 -10.3 13.4 57 -17.2 1
11:25 1025 30.27 854 25.22 -10 14 59 -16.7 2
11:30 1025 30.27 854 25.22 -10.8 12.6 60 -17.2 1.1
11:35 1025 30.27 854 25.22 -10.9 12.3 61 -17 1.4
11:40 1025 30.27 854 25.22 -10.7 12.8 59 -17.2 1
11:45 1025 30.27 854 25.22 -10.4 13.4 59 -17 1.4
11:50 1025 30.27 854 25.22 -9.8 14.5 55 -17.1 1.2
11:55 1025 30.27 854 25.22 -9.7 14.5 56 -16.8 1.7
12:00 1025 30.27 854 25.22 -9.5 14.9 57 -16.5 2.3
12:05 1024 30.24 854 25.22 -9 15.9 54 -16.7 1.9
12:10 1024 30.24 854 25.22 -8.5 16.8 54 -16.1 3
12:15 1024 30.24 853 25.19 -8.8 16.2 53 -16.8 1.8
12:20 1024 30.24 853 25.19 -9.5 14.8 58 -16.3 2.7
12:25 1024 30.24 853 25.19 -9.3 15.2 56 -16.6 2.1
12:30 1024 30.24 853 25.19 -8.9 15.9 56 -16.1 3.1
12:35 1024 30.24 853 25.19 -9.1 15.6 59 -15.8 3.6
12:40 1024 30.24 853 25.19 -8.9 15.9 56 -16.3 2.7
12:45 1023 30.21 853 25.19 -9.2 15.4 57 -16.2 2.8
12:50 1023 30.21 853 25.19 -8.9 16 56 -16.1 3.1
12:55 1023 30.21 853 25.19 -7.8 17.9 54 -15.6 4
13:00 1023 30.21 853 25.19 -7.2 19.1 52 -15.3 4.4
13:05 1023 30.21 853 25.19 -6.7 20 49 -15.6 3.9
13:10 1023 30.21 853 25.19 -6.1 21.1 49 -15.2 4.7
13:15 1023 30.21 853 25.19 -6.6 20.1 50 -15.4 4.3
13:20 1023 30.21 853 25.19 -6.3 20.6 49 -15.5 4.2
13:25 1023 30.21 853 25.19 -5.9 21.4 47 -15.4 4.3
13:30 1023 30.21 852 25.16 -6 21.3 50 -14.7 5.5
13:35 1023 30.21 852 25.16 -5.5 22.2 49 -14.7 5.6
13:40 1023 30.21 852 25.16 -5.5 22.1 48 -14.7 5.5
13:45 1023 30.21 852 25.16 -5.4 22.3 51 -14.1 6.7
13:50 1023 30.21 852 25.16 -5.4 22.4 50 -14.3 6.3
13:55 1023 30.21 852 25.16 -5.3 22.4 51 -14 6.7
14:00 1023 30.21 852 25.16 -5.4 22.2 51 -14.1 6.6
14:05 1023 30.21 852 25.16 -6.2 20.9 51 -14.8 5.3
14:10 1023 30.21 852 25.16 -7.2 19 56 -14.6 5.8
14:15 1023 30.21 852 25.16 -7.5 18.5 54 -15.4 4.4
14:20 1023 30.21 852 25.16 -8.2 17.3 58 -15.1 4.8
14:25 1023 30.21 852 25.16 -8.6 16.6 57 -15.7 3.7
14:30 1023 30.21 852 25.16 -8.3 17.1 60 -14.8 5.3
14:35 1023 30.21 852 25.16 -8.6 16.5 59 -15.3 4.5
14:40 1023 30.21 852 25.16 -9 15.9 58 -15.9 3.4
14:45 1023 30.21 852 25.16 -8.3 17.2 55 -15.8 3.5
14:50 1023 30.21 852 25.16 -7.9 17.7 53 -16 3.2
14:55 1023 30.21 852 25.16 -8.4 17 55 -15.9 3.4
15:00 1023 30.21 852 25.16 -7.9 17.8 53 -15.9 3.3
15:05 1023 30.21 852 25.16 -6.6 20.1 50 -15.5 4.2
15:10 1023 30.21 852 25.16 -5.7 21.8 47 -15.3 4.4
15:15 1023 30.21 852 25.16 -5.7 21.7 48 -15 5.1
15:20 1023 30.21 852 25.16 -6.1 21 51 -14.7 5.5
15:25 1023 30.21 852 25.16 -6 21.2 51 -14.5 5.8
15:30 1023 30.21 852 25.16 -5.9 21.4 53 -14 6.9
15:35 1023 30.21 852 25.16 -6.2 20.9 53 -14.2 6.4
15:40 1023 30.21 852 25.16 -5.6 21.9 51 -14.2 6.4
15:45 1023 30.21 852 25.16 -5.2 22.7 49 -14.2 6.4
15:50 1023 30.21 852 25.16 -5.7 21.7 51 -14.2 6.4
15:55 1023 30.21 852 25.16 -5.9 21.4 52 -14.3 6.2
16:00 1023 30.21 852 25.16 -5.5 22.1 51 -14 6.8
16:05 1023 30.21 852 25.16 -5.3 22.5 51 -14 6.8
16:10 1023 30.21 852 25.16 -5.6 21.9 54 -13.6 7.6
16:15 1023 30.21 852 25.16 -6.2 20.8 55 -13.8 7.2
16:20 1023 30.21 852 25.16 -6.8 19.7 59 -13.6 7.5
16:25 1023 30.21 852 25.16 -7.1 19.2 59 -13.8 7.1
16:30 1023 30.21 852 25.16 -7.4 18.8 60 -14 6.9
16:35 1023 30.21 852 25.16 -7.6 18.4 60 -14 6.8
16:40 1023 30.21 852 25.16 -8 17.7 63 -13.8 7.1
16:45 1023 30.21 852 25.16 -8.1 17.4 63 -14 6.8
16:50 1023 30.21 852 25.16 -8.2 17.3 61 -14.3 6.2
16:55 1023 30.21 852 25.16 -8.3 17 63 -14.2 6.4
17:00 1023 30.21 852 25.16 -8.5 16.8 63 -14.2 6.4
17:05 1023 30.21 852 25.16 -9 15.9 67 -14 6.7
17:10 1023 30.21 852 25.16 -9.1 15.6 69 -13.8 7.2
17:15 1023 30.21 852 25.16 -9.3 15.2 69 -14 6.7
17:20 1023 30.21 852 25.16 -9.5 15 70 -14 6.8
17:25 1023 30.21 852 25.16 -9.5 14.8 71 -13.8 7.2
17:30 1023 30.21 852 25.16 -9.6 14.8 71 -14 6.8
17:35 1023 30.21 852 25.16 -9.6 14.7 70 -14.1 6.5
17:40 1023 30.21 852 25.16 -9.7 14.6 69 -14.3 6.2
17:45 1023 30.21 852 25.16 -9.7 14.6 68 -14.6 5.7
17:50 1022 30.18 852 25.16 -9.6 14.7 68 -14.4 6.1
17:55 1022 30.18 852 25.16 -9.6 14.8 69 -14.2 6.5
18:00 1022 30.18 852 25.16 -9.8 14.3 69 -14.4 6.1
18:05 1022 30.18 852 25.16 -9.8 14.5 69 -14.5 6
18:10 1022 30.18 852 25.16 -9.8 14.3 70 -14.3 6.3
18:15 1022 30.18 852 25.16 -9.8 14.4 72 -13.9 7
18:20 1022 30.18 852 25.16 -9.6 14.6 74 -13.4 7.8
18:25 1022 30.18 852 25.16 -9.7 14.6 77 -13 8.6
18:30 1022 30.18 851 25.13 -9.7 14.5 74 -13.5 7.7
18:35 1022 30.18 851 25.13 -9.5 14.9 74 -13.3 8.1
18:40 1022 30.18 851 25.13 -9.2 15.4 68 -14.1 6.6
18:45 1022 30.18 851 25.13 -8.9 16 63 -14.7 5.5
18:50 1022 30.18 851 25.13 -8.4 16.8 62 -14.6 5.8
18:55 1022 30.18 851 25.13 -7.9 17.8 60 -14.5 6
19:00 1022 30.18 851 25.13 -7.7 18.1 61 -14.1 6.6
19:05 1022 30.18 851 25.13 -7.2 19.1 57 -14.2 6.4
19:10 1022 30.18 851 25.13 -7.1 19.3 62 -13.2 8.2
19:15 1022 30.18 851 25.13 -6.8 19.8 59 -13.6 7.6
19:20 1022 30.18 851 25.13 -7.2 19.1 60 -13.7 7.3
19:25 1022 30.18 851 25.13 -7.5 18.6 63 -13.3 8
19:30 1022 30.18 851 25.13 -8.1 17.4 65 -13.5 7.7
19:35 1022 30.18 851 25.13 -8.5 16.7 66 -13.7 7.3
19:40 1022 30.18 851 25.13 -7.9 17.8 71 -12.3 9.8
19:45 1022 30.18 851 25.13 -7.6 18.3 71 -11.9 10.5
19:50 1022 30.18 851 25.13 -7.7 18.2 71 -12.1 10.2
19:55 1022 30.18 851 25.13 -7.8 18 72 -12 10.4
20:00 1022 30.18 851 25.13 -7.8 18 74 -11.7 11
20:05 1022 30.18 851 25.13 -7.7 18.2 71 -12 10.3
20:10 1022 30.18 851 25.13 -8 17.5 73 -12.1 10.2
20:15 1022 30.18 851 25.13 -8.4 16.9 76 -11.9 10.6
20:20 1022 30.18 851 25.13 -8.2 17.2 75 -11.9 10.7
20:25 1022 30.18 851 25.13 -8.1 17.4 77 -11.5 11.3
20:30 1022 30.18 851 25.13 -8.1 17.4 76 -11.6 11.2
20:35 1022 30.18 851 25.13 -8.1 17.5 77 -11.4 11.5
20:40 1022 30.18 851 25.13 -8 17.6 77 -11.5 11.4
20:45 1022 30.18 851 25.13 -8 17.6 76 -11.5 11.3
20:50 1022 30.18 851 25.13 -8.1 17.4 77 -11.5 11.3
20:55 1022 30.18 851 25.13 -8.3 17.1 78 -11.4 11.5
21:00 1022 30.18 851 25.13 -8.3 17.1 77 -11.6 11.1
21:05 1022 30.18 851 25.13 -8 17.5 76 -11.6 11.1
21:10 1022 30.18 851 25.13 -7.8 18 75 -11.5 11.4
21:15 1022 30.18 851 25.13 -7.8 18 71 -12.1 10.2
21:20 1022 30.18 851 25.13 -7.7 18.1 70 -12.3 9.8
21:25 1022 30.18 851 25.13 -7.5 18.5 62 -13.5 7.7
21:30 1022 30.18 851 25.13 -7.8 18 57 -14.8 5.3
21:35 1022 30.18 851 25.13 -7.8 18.1 58 -14.6 5.7
21:40 1022 30.18 851 25.13 -8.1 17.4 62 -14.1 6.6
21:45 1022 30.18 851 25.13 -8.7 16.4 61 -14.9 5.1
21:50 1022 30.18 851 25.13 -8.2 17.3 62 -14.2 6.5
21:55 1022 30.18 851 25.13 -7.7 18.2 62 -13.7 7.4
22:00 1022 30.18 851 25.13 -7.2 19.1 53 -15.3 4.5
22:05 1022 30.18 851 25.13 -7.1 19.2 56 -14.5 5.9
22:10 1022 30.18 851 25.13 -7.3 18.9 59 -14.1 6.7
22:15 1022 30.18 851 25.13 -7.5 18.5 59 -14.2 6.5
22:20 1022 30.18 851 25.13 -7.8 18 62 -13.8 7.2
22:25 1022 30.18 851 25.13 -8 17.7 65 -13.5 7.8
22:30 1022 30.18 851 25.13 -8.1 17.5 63 -13.9 6.9
22:35 1022 30.18 851 25.13 -8 17.6 58 -14.8 5.3
22:40 1022 30.18 851 25.13 -7.9 17.8 60 -14.3 6.2
22:45 1022 30.18 851 25.13 -7.9 17.8 62 -13.9 6.9
22:50 1022 30.18 851 25.13 -8.3 17.1 65 -13.8 7.2
22:55 1022 30.18 851 25.13 -8.8 16.1 71 -13.1 8.4
23:00 1022 30.18 851 25.13 -9.1 15.7 69 -13.8 7.2
23:05 1022 30.18 851 25.13 -9.1 15.7 67 -14.1 6.5
23:10 1022 30.18 851 25.13 -8.6 16.6 63 -14.4 6.1
23:15 1022 30.18 851 25.13 -8.2 17.3 59 -14.9 5.2
23:20 1022 30.18 851 25.13 -8 17.7 63 -13.7 7.3
23:25 1022 30.18 851 25.13 -7.8 18 64 -13.4 7.8
23:30 1022 30.18 851 25.13 -7.7 18.1 59 -14.4 6
23:35 1022 30.18 851 25.13 -7.7 18.2 73 -11.6 11
23:40 1022 30.18 851 25.13 -7.7 18.2 79 -10.7 12.8
23:45 1022 30.18 851 25.13 -7.8 17.9 80 -10.7 12.7
23:50 1022 30.18 851 25.13 -7.9 17.9 82 -10.4 13.3
23:55 1022 30.18 851 25.13 -7.9 17.7 85 -10 14
24:00 1022 30.18 851 25.13 -7.8 17.9 84 -10.1 13.8